APL Denmark — A8JX9 — position and weather

sailwx.info

Track history (hours):
 
Tides and Currents Weather Stations Pressure Air Temp Water Temp Dewpoint Dewpoint Depression Visibility Wind Speed Wind Dir Waves Ship Positions

APL Denmark

Last reported at 2015-Mar-16 11:33 UTC. Time now 2015-Mar-28 09:25 UTC.
Position S 23°60' W 046°19'.
Warning: this ship's position is 11 days out of date.

Length 277 m; beam 40 m; draft 14 m.

Type: Cargo ship. MMSI: 636091157.

Date/timePositionNaut miles runAvg speedWind from/ knotsBaromVisibWave heightAir tempDewpointWater temp
2015-Mar-16 11:33S 23°60' W 046°19'4 4.0
2015-Mar-16 10:33S 23°56' W 046°20'0 0.0
2015-Mar-16 09:33S 23°56' W 046°20'0 0.0
2015-Mar-16 08:25S 23°56' W 046°20'0 0.0
2015-Mar-16 07:31S 23°56' W 046°20'0 0.0
2015-Mar-16 06:31S 23°56' W 046°20'0 0.0
2015-Mar-16 05:31S 23°56' W 046°20'0 0.0
2015-Mar-16 04:31S 23°56' W 046°20'0 0.0
2015-Mar-16 03:28S 23°56' W 046°20'0 0.0
2015-Mar-16 02:31S 23°56' W 046°20'0 0.0
2015-Mar-16 01:31S 23°56' W 046°20'0 0.0
2015-Mar-16 00:31S 23°56' W 046°20'0 0.0
2015-Mar-15 23:31S 23°56' W 046°20'0 0.0
2015-Mar-15 22:31S 23°56' W 046°20'0 0.0
2015-Mar-15 21:31S 23°56' W 046°20'0 0.0
2015-Mar-15 20:31S 23°56' W 046°20'0 0.0
2015-Mar-15 19:31S 23°56' W 046°20'0 0.0
2015-Mar-15 18:28S 23°56' W 046°20'0 0.0
2015-Mar-15 17:31S 23°56' W 046°20'0 0.0
2015-Mar-15 16:31S 23°56' W 046°20'0 0.0
2015-Mar-15 15:31S 23°56' W 046°20'0 0.0
2015-Mar-15 14:31S 23°56' W 046°20'0 0.0
2015-Mar-15 13:31S 23°56' W 046°20'0 0.0
2015-Mar-15 12:31S 23°56' W 046°20'0 0.0
2015-Mar-15 11:31S 23°56' W 046°20'3 3.2
2015-Mar-15 10:33S 23°58' W 046°18'8 7.8
2015-Mar-15 09:33S 24°05' W 046°22'7 7.0
2015-Mar-15 08:33S 24°11' W 046°25'19112.6
2015-Mar-14 17:24S 26°46' W 048°28'41 1.4
2015-Mar-13 12:20S 27°26' W 048°17'1113.8
2015-Mar-13 11:33S 27°37' W 048°18'1919.4
2015-Mar-13 10:33S 27°55' W 048°25'54611.6
2015-Mar-11 11:33S 35°04' W 055°02'121 4.8
2015-Mar-10 10:32S 34°48' W 057°29'1212.8
2015-Mar-10 09:33S 34°44' W 057°43'6 5.8
2015-Mar-10 08:32S 34°44' W 057°50'1111.6
2015-Mar-10 07:33S 34°39' W 058°03'1312.9
2015-Mar-10 06:32S 34°37' W 058°19'2 1.6
2015-Mar-10 05:25S 34°39' W 058°21'0 0.0
2015-Mar-10 04:30S 34°39' W 058°21'0 0.0
2015-Mar-10 03:12S 34°39' W 058°21'0 0.0
2015-Mar-10 02:33S 34°39' W 058°21'0 0.0
2015-Mar-10 01:30S 34°39' W 058°21'0 0.0
2015-Mar-10 00:33S 34°39' W 058°21'0 0.0
2015-Mar-09 23:30S 34°39' W 058°21'0 0.0
2015-Mar-09 22:30S 34°39' W 058°21'0 0.0
2015-Mar-09 21:30S 34°39' W 058°21'0 0.0
2015-Mar-09 20:33S 34°39' W 058°21'0 0.0
2015-Mar-09 19:12S 34°39' W 058°21'0 0.0
2015-Mar-09 18:30S 34°39' W 058°21'0 0.0
2015-Mar-09 17:33S 34°39' W 058°21'0 0.0
2015-Mar-09 16:33S 34°39' W 058°21'0 0.0
2015-Mar-09 15:33S 34°39' W 058°21'0 0.0
2015-Mar-09 14:30S 34°39' W 058°21'0 0.0
2015-Mar-09 13:30S 34°39' W 058°21'0 0.0
2015-Mar-09 12:24S 34°39' W 058°21'0 0.0
2015-Mar-09 11:33S 34°39' W 058°21'0 0.0
2015-Mar-09 10:27S 34°39' W 058°21'0 0.0
2015-Mar-09 09:27S 34°39' W 058°21'0 0.0
2015-Mar-09 08:33S 34°39' W 058°21'0 0.0
2015-Mar-09 07:33S 34°39' W 058°21'0 0.0
2015-Mar-09 05:33S 34°39' W 058°21'0 0.0
2015-Mar-09 04:27S 34°39' W 058°21'0 0.0
2015-Mar-09 03:33S 34°39' W 058°21'0 0.0
2015-Mar-09 02:33S 34°39' W 058°21'0 0.0
2015-Mar-09 01:33S 34°39' W 058°21'0 0.0
2015-Mar-09 00:33S 34°39' W 058°21'0 0.0
2015-Mar-08 23:33S 34°39' W 058°21'0 0.0
2015-Mar-08 22:33S 34°39' W 058°21'0 0.0
2015-Mar-08 21:27S 34°39' W 058°21'0 0.0
2015-Mar-08 19:03S 34°39' W 058°21'0 0.0
2015-Mar-08 18:33S 34°39' W 058°21'0 0.0
2015-Mar-08 17:33S 34°39' W 058°21'3 2.7
2015-Mar-08 16:33S 34°37' W 058°18'1010.5
2015-Mar-08 15:33S 34°39' W 058°06'1313.5
2015-Mar-08 14:34S 34°43' W 057°50'6 5.5
2015-Mar-08 13:34S 34°44' W 057°44'1313.3
2015-Mar-08 12:33S 34°48' W 057°28'6112.2
2015-Mar-08 07:32S 35°10' W 056°18'17 0.8
2015-Mar-07 09:26S 34°54' W 056°12'0 0.0
2015-Mar-07 03:23S 34°54' W 056°12'0 0.0
2015-Mar-07 02:29S 34°54' W 056°12'0 0.0
2015-Mar-07 01:32S 34°54' W 056°12'0 0.0
2015-Mar-07 00:29S 34°54' W 056°12'0 0.1
2015-Mar-06 23:33S 34°54' W 056°12'  
Track history (hours):
 
Tides and Currents Weather Stations Pressure Air Temp Water Temp Dewpoint Dewpoint Depression Visibility Wind Speed Wind Dir Waves Ship Positions

APL Denmark

Last reported at 2015-Mar-16 11:33 UTC. Time now 2015-Mar-28 09:25 UTC.
Position S 23°60' W 046°19'.
Warning: this ship's position is 11 days out of date.

Length 277 m; beam 40 m; draft 14 m.

Type: Cargo ship. MMSI: 636091157.

Date/timePositionNaut miles runAvg speedWind from/ knotsBaromVisibWave heightAir tempDewpointWater temp
2015-Mar-16 11:33S 23°60' W 046°19'4 4.0
2015-Mar-16 10:33S 23°56' W 046°20'0 0.0
2015-Mar-16 09:33S 23°56' W 046°20'0 0.0
2015-Mar-16 08:25S 23°56' W 046°20'0 0.0
2015-Mar-16 07:31S 23°56' W 046°20'0 0.0
2015-Mar-16 06:31S 23°56' W 046°20'0 0.0
2015-Mar-16 05:31S 23°56' W 046°20'0 0.0
2015-Mar-16 04:31S 23°56' W 046°20'0 0.0
2015-Mar-16 03:28S 23°56' W 046°20'0 0.0
2015-Mar-16 02:31S 23°56' W 046°20'0 0.0
2015-Mar-16 01:31S 23°56' W 046°20'0 0.0
2015-Mar-16 00:31S 23°56' W 046°20'0 0.0
2015-Mar-15 23:31S 23°56' W 046°20'0 0.0
2015-Mar-15 22:31S 23°56' W 046°20'0 0.0
2015-Mar-15 21:31S 23°56' W 046°20'0 0.0
2015-Mar-15 20:31S 23°56' W 046°20'0 0.0
2015-Mar-15 19:31S 23°56' W 046°20'0 0.0
2015-Mar-15 18:28S 23°56' W 046°20'0 0.0
2015-Mar-15 17:31S 23°56' W 046°20'0 0.0
2015-Mar-15 16:31S 23°56' W 046°20'0 0.0
2015-Mar-15 15:31S 23°56' W 046°20'0 0.0
2015-Mar-15 14:31S 23°56' W 046°20'0 0.0
2015-Mar-15 13:31S 23°56' W 046°20'0 0.0
2015-Mar-15 12:31S 23°56' W 046°20'0 0.0
2015-Mar-15 11:31S 23°56' W 046°20'3 3.2
2015-Mar-15 10:33S 23°58' W 046°18'8 7.8
2015-Mar-15 09:33S 24°05' W 046°22'7 7.0
2015-Mar-15 08:33S 24°11' W 046°25'19112.6
2015-Mar-14 17:24S 26°46' W 048°28'41 1.4
2015-Mar-13 12:20S 27°26' W 048°17'1113.8
2015-Mar-13 11:33S 27°37' W 048°18'1919.4
2015-Mar-13 10:33S 27°55' W 048°25'54611.6
2015-Mar-11 11:33S 35°04' W 055°02'121 4.8
2015-Mar-10 10:32S 34°48' W 057°29'1212.8
2015-Mar-10 09:33S 34°44' W 057°43'6 5.8
2015-Mar-10 08:32S 34°44' W 057°50'1111.6
2015-Mar-10 07:33S 34°39' W 058°03'1312.9
2015-Mar-10 06:32S 34°37' W 058°19'2 1.6
2015-Mar-10 05:25S 34°39' W 058°21'0 0.0
2015-Mar-10 04:30S 34°39' W 058°21'0 0.0
2015-Mar-10 03:12S 34°39' W 058°21'0 0.0
2015-Mar-10 02:33S 34°39' W 058°21'0 0.0
2015-Mar-10 01:30S 34°39' W 058°21'0 0.0
2015-Mar-10 00:33S 34°39' W 058°21'0 0.0
2015-Mar-09 23:30S 34°39' W 058°21'0 0.0
2015-Mar-09 22:30S 34°39' W 058°21'0 0.0
2015-Mar-09 21:30S 34°39' W 058°21'0 0.0
2015-Mar-09 20:33S 34°39' W 058°21'0 0.0
2015-Mar-09 19:12S 34°39' W 058°21'0 0.0
2015-Mar-09 18:30S 34°39' W 058°21'0 0.0
2015-Mar-09 17:33S 34°39' W 058°21'0 0.0
2015-Mar-09 16:33S 34°39' W 058°21'0 0.0
2015-Mar-09 15:33S 34°39' W 058°21'0 0.0
2015-Mar-09 14:30S 34°39' W 058°21'0 0.0
2015-Mar-09 13:30S 34°39' W 058°21'0 0.0
2015-Mar-09 12:24S 34°39' W 058°21'0 0.0
2015-Mar-09 11:33S 34°39' W 058°21'0 0.0
2015-Mar-09 10:27S 34°39' W 058°21'0 0.0
2015-Mar-09 09:27S 34°39' W 058°21'0 0.0
2015-Mar-09 08:33S 34°39' W 058°21'0 0.0
2015-Mar-09 07:33S 34°39' W 058°21'0 0.0
2015-Mar-09 05:33S 34°39' W 058°21'0 0.0
2015-Mar-09 04:27S 34°39' W 058°21'0 0.0
2015-Mar-09 03:33S 34°39' W 058°21'0 0.0
2015-Mar-09 02:33S 34°39' W 058°21'0 0.0
2015-Mar-09 01:33S 34°39' W 058°21'0 0.0
2015-Mar-09 00:33S 34°39' W 058°21'0 0.0
2015-Mar-08 23:33S 34°39' W 058°21'0 0.0
2015-Mar-08 22:33S 34°39' W 058°21'0 0.0
2015-Mar-08 21:27S 34°39' W 058°21'0 0.0
2015-Mar-08 19:03S 34°39' W 058°21'0 0.0
2015-Mar-08 18:33S 34°39' W 058°21'0 0.0
2015-Mar-08 17:33S 34°39' W 058°21'3 2.7
2015-Mar-08 16:33S 34°37' W 058°18'1010.5
2015-Mar-08 15:33S 34°39' W 058°06'1313.5
2015-Mar-08 14:34S 34°43' W 057°50'6 5.5
2015-Mar-08 13:34S 34°44' W 057°44'1313.3
2015-Mar-08 12:33S 34°48' W 057°28'6112.2
2015-Mar-08 07:32S 35°10' W 056°18'17 0.8
2015-Mar-07 09:26S 34°54' W 056°12'0 0.0
2015-Mar-07 03:23S 34°54' W 056°12'0 0.0
2015-Mar-07 02:29S 34°54' W 056°12'0 0.0
2015-Mar-07 01:32S 34°54' W 056°12'0 0.0
2015-Mar-07 00:29S 34°54' W 056°12'0 0.1
2015-Mar-06 23:33S 34°54' W 056°12'  

Dump ship's entire track history